78TS weather

Valley International Heliport
Harlingen, Texas, United States

Public forecast

Using degrees Fahrenheit for public forecast. Weather courtesy of forecast.io.

Closest aviation weather report (METAR) to Valley International Heliport

Closest report is Valley International Airport, 3.6 nm (6.7 km) N. Retrieved 2019/10/14 01:52 UTC (54 minutes ago):

KHRL 140152Z 00000KT 10SM CLR 23/23 A2992 RMK AO2 SLP133 T02330228

Closest aviation forecast (TAF) to Valley International Heliport

Closest forecast is Valley International Airport, 3.6 nm (6.7 km) N. Retrieved 2019-10-14 00:22 UTC (2 hours ago):

TAF KHRL 132320Z 1400/1424 06004KT P6SM FEW050 SCT120 FM141200 VRB04KT P6SM FEW030 SCT250